sensor_id;sensor_type;location;lat;lon;timestamp;P1;durP1;ratioP1;P2;durP2;ratioP2
51578;SDS011;47998;53.242;6.386;2023-07-31T00:00:28;9.52;;;4.78;;
51578;SDS011;47998;53.242;6.386;2023-07-31T00:02:54;9.35;;;5.38;;
51578;SDS011;47998;53.242;6.386;2023-07-31T00:05:20;13.00;;;6.22;;
51578;SDS011;47998;53.242;6.386;2023-07-31T00:07:46;14.73;;;6.88;;
51578;SDS011;47998;53.242;6.386;2023-07-31T00:10:15;13.00;;;7.25;;
51578;SDS011;47998;53.242;6.386;2023-07-31T00:12:43;14.43;;;8.00;;
51578;SDS011;47998;53.242;6.386;2023-07-31T00:15:10;9.00;;;5.80;;
51578;SDS011;47998;53.242;6.386;2023-07-31T00:17:36;8.73;;;5.45;;
51578;SDS011;47998;53.242;6.386;2023-07-31T00:20:02;9.82;;;5.47;;
51578;SDS011;47998;53.242;6.386;2023-07-31T00:22:28;7.68;;;5.35;;
51578;SDS011;47998;53.242;6.386;2023-07-31T00:24:56;6.93;;;4.95;;
51578;SDS011;47998;53.242;6.386;2023-07-31T00:27:22;5.95;;;2.78;;
51578;SDS011;47998;53.242;6.386;2023-07-31T00:29:48;5.22;;;2.63;;
51578;SDS011;47998;53.242;6.386;2023-07-31T00:32:14;3.17;;;1.90;;
51578;SDS011;47998;53.242;6.386;2023-07-31T00:34:40;7.22;;;2.40;;
51578;SDS011;47998;53.242;6.386;2023-07-31T00:37:05;5.43;;;3.30;;
51578;SDS011;47998;53.242;6.386;2023-07-31T00:39:33;8.13;;;4.57;;
51578;SDS011;47998;53.242;6.386;2023-07-31T00:41:59;13.35;;;4.93;;
51578;SDS011;47998;53.242;6.386;2023-07-31T00:44:25;6.40;;;3.75;;
51578;SDS011;47998;53.242;6.386;2023-07-31T00:46:52;9.20;;;4.95;;
51578;SDS011;47998;53.242;6.386;2023-07-31T00:49:17;10.55;;;5.55;;
51578;SDS011;47998;53.242;6.386;2023-07-31T00:51:43;8.90;;;5.35;;
51578;SDS011;47998;53.242;6.386;2023-07-31T00:54:09;7.80;;;5.15;;
51578;SDS011;47998;53.242;6.386;2023-07-31T00:56:36;9.20;;;6.60;;
51578;SDS011;47998;53.242;6.386;2023-07-31T00:59:02;6.63;;;5.25;;
51578;SDS011;47998;53.242;6.386;2023-07-31T01:01:28;8.23;;;4.72;;
51578;SDS011;47998;53.242;6.386;2023-07-31T01:03:53;9.45;;;5.85;;
51578;SDS011;47998;53.242;6.386;2023-07-31T01:11:52;8.93;;;6.28;;
51578;SDS011;47998;53.242;6.386;2023-07-31T01:14:21;7.82;;;5.88;;
51578;SDS011;47998;53.242;6.386;2023-07-31T01:16:47;8.55;;;5.18;;
51578;SDS011;47998;53.242;6.386;2023-07-31T01:19:14;6.70;;;5.05;;
51578;SDS011;47998;53.242;6.386;2023-07-31T01:27:18;5.30;;;2.97;;
51578;SDS011;47998;53.242;6.386;2023-07-31T01:32:26;6.10;;;4.35;;
51578;SDS011;47998;53.242;6.386;2023-07-31T01:34:54;6.93;;;6.07;;
51578;SDS011;47998;53.242;6.386;2023-07-31T01:37:21;11.27;;;7.60;;
51578;SDS011;47998;53.242;6.386;2023-07-31T01:39:50;9.93;;;7.75;;
51578;SDS011;47998;53.242;6.386;2023-07-31T01:42:17;7.30;;;5.93;;
51578;SDS011;47998;53.242;6.386;2023-07-31T01:44:42;7.07;;;6.38;;
51578;SDS011;47998;53.242;6.386;2023-07-31T01:47:08;9.30;;;7.25;;
51578;SDS011;47998;53.242;6.386;2023-07-31T01:49:34;9.50;;;6.35;;
51578;SDS011;47998;53.242;6.386;2023-07-31T01:51:59;8.60;;;6.50;;
51578;SDS011;47998;53.242;6.386;2023-07-31T01:54:25;6.88;;;5.65;;
51578;SDS011;47998;53.242;6.386;2023-07-31T01:56:51;7.00;;;6.30;;
51578;SDS011;47998;53.242;6.386;2023-07-31T01:59:17;9.40;;;8.20;;
51578;SDS011;47998;53.242;6.386;2023-07-31T02:01:42;10.88;;;7.22;;
51578;SDS011;47998;53.242;6.386;2023-07-31T02:04:08;11.15;;;7.97;;
51578;SDS011;47998;53.242;6.386;2023-07-31T02:06:34;8.88;;;7.10;;
51578;SDS011;47998;53.242;6.386;2023-07-31T02:08:59;9.10;;;7.53;;
51578;SDS011;47998;53.242;6.386;2023-07-31T02:11:25;11.13;;;6.88;;
51578;SDS011;47998;53.242;6.386;2023-07-31T02:13:51;8.15;;;7.03;;
51578;SDS011;47998;53.242;6.386;2023-07-31T02:16:16;12.50;;;6.53;;
51578;SDS011;47998;53.242;6.386;2023-07-31T02:18:42;6.95;;;5.63;;
51578;SDS011;47998;53.242;6.386;2023-07-31T02:21:08;8.45;;;5.75;;
51578;SDS011;47998;53.242;6.386;2023-07-31T02:23:33;9.45;;;5.70;;
51578;SDS011;47998;53.242;6.386;2023-07-31T02:25:59;9.82;;;5.88;;
51578;SDS011;47998;53.242;6.386;2023-07-31T02:28:25;7.50;;;5.90;;
51578;SDS011;47998;53.242;6.386;2023-07-31T02:30:50;8.23;;;5.65;;
51578;SDS011;47998;53.242;6.386;2023-07-31T02:33:17;6.85;;;5.57;;
51578;SDS011;47998;53.242;6.386;2023-07-31T02:35:43;11.77;;;6.20;;
51578;SDS011;47998;53.242;6.386;2023-07-31T02:38:08;10.20;;;6.50;;
51578;SDS011;47998;53.242;6.386;2023-07-31T02:40:34;10.52;;;6.25;;
51578;SDS011;47998;53.242;6.386;2023-07-31T02:43:00;8.93;;;5.90;;
51578;SDS011;47998;53.242;6.386;2023-07-31T02:45:25;12.98;;;6.50;;
51578;SDS011;47998;53.242;6.386;2023-07-31T02:47:51;10.20;;;6.60;;
51578;SDS011;47998;53.242;6.386;2023-07-31T02:50:17;10.77;;;6.38;;
51578;SDS011;47998;53.242;6.386;2023-07-31T02:52:42;9.52;;;6.20;;
51578;SDS011;47998;53.242;6.386;2023-07-31T02:55:08;9.80;;;6.25;;
51578;SDS011;47998;53.242;6.386;2023-07-31T02:57:34;9.40;;;6.78;;
51578;SDS011;47998;53.242;6.386;2023-07-31T02:59:59;9.20;;;6.35;;
51578;SDS011;47998;53.242;6.386;2023-07-31T03:02:25;13.48;;;6.35;;
51578;SDS011;47998;53.242;6.386;2023-07-31T03:04:51;10.68;;;6.38;;
51578;SDS011;47998;53.242;6.386;2023-07-31T03:07:17;13.75;;;6.95;;
51578;SDS011;47998;53.242;6.386;2023-07-31T03:09:43;12.77;;;6.03;;
51578;SDS011;47998;53.242;6.386;2023-07-31T03:12:08;8.93;;;6.07;;
51578;SDS011;47998;53.242;6.386;2023-07-31T03:14:34;11.20;;;5.45;;
51578;SDS011;47998;53.242;6.386;2023-07-31T03:17:00;9.45;;;5.53;;
51578;SDS011;47998;53.242;6.386;2023-07-31T03:19:25;7.57;;;4.45;;
51578;SDS011;47998;53.242;6.386;2023-07-31T03:21:51;11.07;;;6.13;;
51578;SDS011;47998;53.242;6.386;2023-07-31T03:24:17;9.32;;;4.82;;
51578;SDS011;47998;53.242;6.386;2023-07-31T03:26:42;10.45;;;6.00;;
51578;SDS011;47998;53.242;6.386;2023-07-31T03:29:08;10.15;;;5.50;;
51578;SDS011;47998;53.242;6.386;2023-07-31T03:31:34;8.48;;;5.18;;
51578;SDS011;47998;53.242;6.386;2023-07-31T03:33:59;8.20;;;4.53;;
51578;SDS011;47998;53.242;6.386;2023-07-31T03:36:25;10.05;;;5.72;;
51578;SDS011;47998;53.242;6.386;2023-07-31T03:38:51;11.43;;;5.80;;
51578;SDS011;47998;53.242;6.386;2023-07-31T03:41:17;11.30;;;5.90;;
51578;SDS011;47998;53.242;6.386;2023-07-31T03:43:43;14.18;;;5.13;;
51578;SDS011;47998;53.242;6.386;2023-07-31T03:46:08;9.27;;;5.18;;
51578;SDS011;47998;53.242;6.386;2023-07-31T03:48:34;11.82;;;5.00;;
51578;SDS011;47998;53.242;6.386;2023-07-31T03:51:00;9.30;;;4.55;;
51578;SDS011;47998;53.242;6.386;2023-07-31T03:53:26;9.30;;;5.40;;
51578;SDS011;47998;53.242;6.386;2023-07-31T03:55:51;12.05;;;5.05;;
51578;SDS011;47998;53.242;6.386;2023-07-31T03:58:17;10.13;;;4.55;;
51578;SDS011;47998;53.242;6.386;2023-07-31T04:00:43;10.70;;;4.22;;
51578;SDS011;47998;53.242;6.386;2023-07-31T04:03:08;10.88;;;3.95;;
51578;SDS011;47998;53.242;6.386;2023-07-31T04:05:37;10.50;;;3.97;;
51578;SDS011;47998;53.242;6.386;2023-07-31T04:08:03;12.30;;;4.30;;
51578;SDS011;47998;53.242;6.386;2023-07-31T04:10:29;9.23;;;4.00;;
51578;SDS011;47998;53.242;6.386;2023-07-31T04:12:56;9.25;;;4.47;;
51578;SDS011;47998;53.242;6.386;2023-07-31T04:15:22;9.35;;;3.92;;
51578;SDS011;47998;53.242;6.386;2023-07-31T04:17:47;5.55;;;3.85;;
51578;SDS011;47998;53.242;6.386;2023-07-31T04:20:13;6.95;;;3.50;;
51578;SDS011;47998;53.242;6.386;2023-07-31T04:22:39;7.97;;;3.83;;
51578;SDS011;47998;53.242;6.386;2023-07-31T04:25:05;8.10;;;4.00;;
51578;SDS011;47998;53.242;6.386;2023-07-31T04:27:31;7.32;;;3.85;;
51578;SDS011;47998;53.242;6.386;2023-07-31T04:29:56;11.15;;;4.00;;
51578;SDS011;47998;53.242;6.386;2023-07-31T04:32:22;6.03;;;3.40;;
51578;SDS011;47998;53.242;6.386;2023-07-31T04:34:48;7.25;;;3.72;;
51578;SDS011;47998;53.242;6.386;2023-07-31T04:37:13;6.63;;;3.58;;
51578;SDS011;47998;53.242;6.386;2023-07-31T04:39:39;5.93;;;3.83;;
51578;SDS011;47998;53.242;6.386;2023-07-31T04:42:05;6.15;;;3.63;;
51578;SDS011;47998;53.242;6.386;2023-07-31T04:44:31;6.18;;;3.50;;
51578;SDS011;47998;53.242;6.386;2023-07-31T04:46:56;5.90;;;3.47;;
51578;SDS011;47998;53.242;6.386;2023-07-31T04:49:22;6.22;;;2.97;;
51578;SDS011;47998;53.242;6.386;2023-07-31T04:51:48;8.27;;;2.67;;
51578;SDS011;47998;53.242;6.386;2023-07-31T04:54:13;4.13;;;2.10;;
51578;SDS011;47998;53.242;6.386;2023-07-31T04:56:40;3.80;;;1.70;;
51578;SDS011;47998;53.242;6.386;2023-07-31T04:59:06;4.63;;;2.25;;
51578;SDS011;47998;53.242;6.386;2023-07-31T05:01:32;3.85;;;2.80;;
51578;SDS011;47998;53.242;6.386;2023-07-31T05:03:57;6.80;;;2.72;;
51578;SDS011;47998;53.242;6.386;2023-07-31T05:06:23;6.13;;;2.80;;
51578;SDS011;47998;53.242;6.386;2023-07-31T05:08:49;8.02;;;3.42;;
51578;SDS011;47998;53.242;6.386;2023-07-31T05:11:15;4.55;;;3.17;;
51578;SDS011;47998;53.242;6.386;2023-07-31T05:13:40;5.57;;;3.15;;
51578;SDS011;47998;53.242;6.386;2023-07-31T05:16:06;6.13;;;3.30;;
51578;SDS011;47998;53.242;6.386;2023-07-31T05:18:32;2.92;;;2.42;;
51578;SDS011;47998;53.242;6.386;2023-07-31T05:20:57;4.80;;;2.00;;
51578;SDS011;47998;53.242;6.386;2023-07-31T05:23:23;1.77;;;1.38;;
51578;SDS011;47998;53.242;6.386;2023-07-31T05:25:49;3.83;;;1.23;;
51578;SDS011;47998;53.242;6.386;2023-07-31T05:28:14;2.15;;;1.10;;
51578;SDS011;47998;53.242;6.386;2023-07-31T05:30:40;3.83;;;1.30;;
51578;SDS011;47998;53.242;6.386;2023-07-31T05:33:06;4.22;;;1.63;;
51578;SDS011;47998;53.242;6.386;2023-07-31T05:35:31;2.03;;;1.27;;
51578;SDS011;47998;53.242;6.386;2023-07-31T05:37:57;2.90;;;1.10;;
51578;SDS011;47998;53.242;6.386;2023-07-31T05:40:23;2.20;;;1.17;;
51578;SDS011;47998;53.242;6.386;2023-07-31T05:42:48;2.97;;;1.60;;
51578;SDS011;47998;53.242;6.386;2023-07-31T05:45:14;4.53;;;1.88;;
51578;SDS011;47998;53.242;6.386;2023-07-31T05:47:40;2.85;;;1.45;;
51578;SDS011;47998;53.242;6.386;2023-07-31T05:50:06;2.70;;;1.50;;
51578;SDS011;47998;53.242;6.386;2023-07-31T05:52:31;3.35;;;1.40;;
51578;SDS011;47998;53.242;6.386;2023-07-31T05:54:57;3.35;;;1.50;;
51578;SDS011;47998;53.242;6.386;2023-07-31T05:57:23;4.43;;;1.90;;
51578;SDS011;47998;53.242;6.386;2023-07-31T05:59:48;2.60;;;1.40;;
51578;SDS011;47998;53.242;6.386;2023-07-31T06:02:14;2.22;;;1.60;;
51578;SDS011;47998;53.242;6.386;2023-07-31T06:04:40;6.13;;;2.10;;
51578;SDS011;47998;53.242;6.386;2023-07-31T06:07:06;4.57;;;1.88;;
51578;SDS011;47998;53.242;6.386;2023-07-31T06:09:32;3.78;;;1.95;;
51578;SDS011;47998;53.242;6.386;2023-07-31T06:11:57;4.63;;;2.45;;
51578;SDS011;47998;53.242;6.386;2023-07-31T06:14:23;5.45;;;2.35;;
51578;SDS011;47998;53.242;6.386;2023-07-31T06:16:49;5.88;;;2.58;;
51578;SDS011;47998;53.242;6.386;2023-07-31T06:19:15;7.15;;;3.03;;
51578;SDS011;47998;53.242;6.386;2023-07-31T06:21:40;7.68;;;2.80;;
51578;SDS011;47998;53.242;6.386;2023-07-31T06:24:08;6.03;;;3.00;;
51578;SDS011;47998;53.242;6.386;2023-07-31T06:26:34;7.25;;;3.40;;
51578;SDS011;47998;53.242;6.386;2023-07-31T06:29:00;7.03;;;3.70;;
51578;SDS011;47998;53.242;6.386;2023-07-31T06:31:25;8.93;;;3.50;;
51578;SDS011;47998;53.242;6.386;2023-07-31T06:33:52;10.38;;;3.67;;
51578;SDS011;47998;53.242;6.386;2023-07-31T06:36:18;12.07;;;4.57;;
51578;SDS011;47998;53.242;6.386;2023-07-31T06:38:44;11.10;;;4.13;;
51578;SDS011;47998;53.242;6.386;2023-07-31T06:41:09;15.18;;;5.00;;
51578;SDS011;47998;53.242;6.386;2023-07-31T06:43:35;19.58;;;6.13;;
51578;SDS011;47998;53.242;6.386;2023-07-31T06:46:08;17.35;;;6.10;;
51578;SDS011;47998;53.242;6.386;2023-07-31T06:51:01;20.38;;;7.28;;
51578;SDS011;47998;53.242;6.386;2023-07-31T06:53:27;29.52;;;8.48;;
51578;SDS011;47998;53.242;6.386;2023-07-31T06:55:54;25.45;;;7.88;;
51578;SDS011;47998;53.242;6.386;2023-07-31T06:58:19;27.27;;;7.15;;
51578;SDS011;47998;53.242;6.386;2023-07-31T07:00:45;26.17;;;8.05;;
51578;SDS011;47998;53.242;6.386;2023-07-31T07:03:11;27.95;;;8.25;;
51578;SDS011;47998;53.242;6.386;2023-07-31T07:05:39;27.83;;;9.25;;
51578;SDS011;47998;53.242;6.386;2023-07-31T07:08:05;25.88;;;8.70;;
51578;SDS011;47998;53.242;6.386;2023-07-31T07:10:31;24.15;;;7.25;;
51578;SDS011;47998;53.242;6.386;2023-07-31T07:12:57;20.90;;;8.10;;
51578;SDS011;47998;53.242;6.386;2023-07-31T07:15:22;29.10;;;8.95;;
51578;SDS011;47998;53.242;6.386;2023-07-31T07:17:48;27.35;;;6.97;;
51578;SDS011;47998;53.242;6.386;2023-07-31T07:20:14;21.20;;;6.28;;
51578;SDS011;47998;53.242;6.386;2023-07-31T07:22:40;19.80;;;5.22;;
51578;SDS011;47998;53.242;6.386;2023-07-31T07:25:08;15.77;;;6.13;;
51578;SDS011;47998;53.242;6.386;2023-07-31T07:27:34;17.48;;;4.93;;
51578;SDS011;47998;53.242;6.386;2023-07-31T07:30:00;12.70;;;4.80;;
51578;SDS011;47998;53.242;6.386;2023-07-31T07:32:25;16.50;;;5.10;;
51578;SDS011;47998;53.242;6.386;2023-07-31T07:34:51;22.67;;;6.05;;
51578;SDS011;47998;53.242;6.386;2023-07-31T07:37:17;12.55;;;4.45;;
51578;SDS011;47998;53.242;6.386;2023-07-31T07:39:43;14.88;;;4.93;;
51578;SDS011;47998;53.242;6.386;2023-07-31T07:42:09;14.20;;;4.35;;
51578;SDS011;47998;53.242;6.386;2023-07-31T07:44:35;16.35;;;6.25;;
51578;SDS011;47998;53.242;6.386;2023-07-31T07:47:01;12.43;;;4.63;;
51578;SDS011;47998;53.242;6.386;2023-07-31T07:49:26;12.05;;;4.07;;
51578;SDS011;47998;53.242;6.386;2023-07-31T07:51:52;15.90;;;6.40;;
51578;SDS011;47998;53.242;6.386;2023-07-31T07:54:18;14.20;;;5.32;;
51578;SDS011;47998;53.242;6.386;2023-07-31T07:56:45;8.63;;;3.85;;
51578;SDS011;47998;53.242;6.386;2023-07-31T07:59:11;11.90;;;4.65;;
51578;SDS011;47998;53.242;6.386;2023-07-31T08:01:36;8.18;;;3.70;;
51578;SDS011;47998;53.242;6.386;2023-07-31T08:04:02;8.00;;;3.75;;
51578;SDS011;47998;53.242;6.386;2023-07-31T08:06:28;7.90;;;3.58;;
51578;SDS011;47998;53.242;6.386;2023-07-31T08:08:54;7.13;;;2.95;;
51578;SDS011;47998;53.242;6.386;2023-07-31T08:11:20;3.53;;;1.60;;
51578;SDS011;47998;53.242;6.386;2023-07-31T08:13:48;2.10;;;1.00;;
51578;SDS011;47998;53.242;6.386;2023-07-31T08:16:14;1.55;;;0.70;;
51578;SDS011;47998;53.242;6.386;2023-07-31T08:18:40;2.40;;;0.70;;
51578;SDS011;47998;53.242;6.386;2023-07-31T08:21:07;2.70;;;0.77;;
51578;SDS011;47998;53.242;6.386;2023-07-31T08:23:33;2.20;;;0.90;;
51578;SDS011;47998;53.242;6.386;2023-07-31T08:25:59;0.93;;;0.60;;
51578;SDS011;47998;53.242;6.386;2023-07-31T08:28:24;1.48;;;0.60;;
51578;SDS011;47998;53.242;6.386;2023-07-31T08:30:50;0.93;;;0.47;;
51578;SDS011;47998;53.242;6.386;2023-07-31T08:33:16;1.92;;;0.50;;
51578;SDS011;47998;53.242;6.386;2023-07-31T08:35:41;1.50;;;0.70;;
51578;SDS011;47998;53.242;6.386;2023-07-31T08:38:07;1.02;;;0.50;;
51578;SDS011;47998;53.242;6.386;2023-07-31T08:40:35;0.95;;;0.30;;
51578;SDS011;47998;53.242;6.386;2023-07-31T08:43:03;0.90;;;0.40;;
51578;SDS011;47998;53.242;6.386;2023-07-31T08:45:29;0.68;;;0.35;;
51578;SDS011;47998;53.242;6.386;2023-07-31T08:47:56;4.30;;;0.50;;
51578;SDS011;47998;53.242;6.386;2023-07-31T08:50:25;1.10;;;0.47;;
51578;SDS011;47998;53.242;6.386;2023-07-31T08:52:51;0.95;;;0.38;;
51578;SDS011;47998;53.242;6.386;2023-07-31T08:55:18;0.60;;;0.30;;
51578;SDS011;47998;53.242;6.386;2023-07-31T08:57:50;1.48;;;0.30;;
51578;SDS011;47998;53.242;6.386;2023-07-31T09:00:20;1.98;;;0.20;;
51578;SDS011;47998;53.242;6.386;2023-07-31T09:02:51;0.25;;;0.10;;
51578;SDS011;47998;53.242;6.386;2023-07-31T09:05:28;0.47;;;0.20;;
51578;SDS011;47998;53.242;6.386;2023-07-31T09:07:55;0.25;;;0.10;;
51578;SDS011;47998;53.242;6.386;2023-07-31T09:10:22;1.38;;;0.30;;
51578;SDS011;47998;53.242;6.386;2023-07-31T09:12:48;0.10;;;0.10;;
51578;SDS011;47998;53.242;6.386;2023-07-31T09:15:18;0.52;;;0.22;;
51578;SDS011;47998;53.242;6.386;2023-07-31T09:17:44;0.13;;;0.00;;
51578;SDS011;47998;53.242;6.386;2023-07-31T09:20:14;2.30;;;0.32;;
51578;SDS011;47998;53.242;6.386;2023-07-31T09:22:41;0.30;;;0.15;;
51578;SDS011;47998;53.242;6.386;2023-07-31T09:27:54;0.50;;;0.15;;
51578;SDS011;47998;53.242;6.386;2023-07-31T09:30:22;0.47;;;0.20;;
51578;SDS011;47998;53.242;6.386;2023-07-31T09:32:48;0.75;;;0.50;;
51578;SDS011;47998;53.242;6.386;2023-07-31T09:37:58;0.10;;;0.10;;
51578;SDS011;47998;53.242;6.386;2023-07-31T09:40:45;0.57;;;0.20;;
51578;SDS011;47998;53.242;6.386;2023-07-31T09:43:13;1.17;;;0.20;;
51578;SDS011;47998;53.242;6.386;2023-07-31T09:45:43;1.02;;;0.30;;
51578;SDS011;47998;53.242;6.386;2023-07-31T09:48:14;0.20;;;0.10;;
51578;SDS011;47998;53.242;6.386;2023-07-31T09:50:42;0.57;;;0.10;;
51578;SDS011;47998;53.242;6.386;2023-07-31T09:53:12;0.10;;;0.00;;
51578;SDS011;47998;53.242;6.386;2023-07-31T09:55:38;1.15;;;0.35;;
51578;SDS011;47998;53.242;6.386;2023-07-31T09:58:09;2.35;;;0.40;;
51578;SDS011;47998;53.242;6.386;2023-07-31T10:00:37;1.17;;;0.35;;
51578;SDS011;47998;53.242;6.386;2023-07-31T10:03:07;3.75;;;0.70;;
51578;SDS011;47998;53.242;6.386;2023-07-31T10:05:35;1.42;;;0.20;;
51578;SDS011;47998;53.242;6.386;2023-07-31T10:08:21;1.90;;;0.32;;
51578;SDS011;47998;53.242;6.386;2023-07-31T10:10:54;0.40;;;0.20;;
51578;SDS011;47998;53.242;6.386;2023-07-31T10:13:23;2.25;;;1.08;;
51578;SDS011;47998;53.242;6.386;2023-07-31T10:15:49;3.97;;;1.17;;
51578;SDS011;47998;53.242;6.386;2023-07-31T10:18:16;3.30;;;1.27;;
51578;SDS011;47998;53.242;6.386;2023-07-31T10:20:44;3.03;;;1.40;;
51578;SDS011;47998;53.242;6.386;2023-07-31T10:23:10;3.58;;;0.57;;
51578;SDS011;47998;53.242;6.386;2023-07-31T10:25:37;2.67;;;0.80;;
51578;SDS011;47998;53.242;6.386;2023-07-31T10:28:03;1.38;;;0.65;;
51578;SDS011;47998;53.242;6.386;2023-07-31T10:30:30;4.13;;;0.60;;
51578;SDS011;47998;53.242;6.386;2023-07-31T10:32:59;2.58;;;0.73;;
51578;SDS011;47998;53.242;6.386;2023-07-31T10:35:25;0.93;;;0.40;;
51578;SDS011;47998;53.242;6.386;2023-07-31T10:37:52;1.33;;;0.30;;
51578;SDS011;47998;53.242;6.386;2023-07-31T10:40:18;0.88;;;0.47;;
51578;SDS011;47998;53.242;6.386;2023-07-31T10:42:49;1.67;;;0.55;;
51578;SDS011;47998;53.242;6.386;2023-07-31T10:45:24;1.17;;;0.30;;
51578;SDS011;47998;53.242;6.386;2023-07-31T10:47:59;2.38;;;0.50;;
51578;SDS011;47998;53.242;6.386;2023-07-31T10:50:26;0.73;;;0.28;;
51578;SDS011;47998;53.242;6.386;2023-07-31T10:52:52;0.43;;;0.30;;
51578;SDS011;47998;53.242;6.386;2023-07-31T10:55:32;0.68;;;0.30;;
51578;SDS011;47998;53.242;6.386;2023-07-31T10:58:05;2.28;;;0.20;;
51578;SDS011;47998;53.242;6.386;2023-07-31T11:00:36;0.10;;;0.05;;
51578;SDS011;47998;53.242;6.386;2023-07-31T11:08:35;1.65;;;0.30;;
51578;SDS011;47998;53.242;6.386;2023-07-31T11:11:07;1.45;;;0.20;;
51578;SDS011;47998;53.242;6.386;2023-07-31T11:13:41;2.03;;;0.20;;
51578;SDS011;47998;53.242;6.386;2023-07-31T11:16:13;1.65;;;0.30;;
51578;SDS011;47998;53.242;6.386;2023-07-31T11:18:45;0.43;;;0.17;;
51578;SDS011;47998;53.242;6.386;2023-07-31T11:21:17;1.17;;;0.68;;
51578;SDS011;47998;53.242;6.386;2023-07-31T11:23:56;1.25;;;0.35;;
51578;SDS011;47998;53.242;6.386;2023-07-31T11:26:23;0.70;;;0.30;;
51578;SDS011;47998;53.242;6.386;2023-07-31T11:28:49;0.95;;;0.52;;
51578;SDS011;47998;53.242;6.386;2023-07-31T11:31:16;2.03;;;0.57;;
51578;SDS011;47998;53.242;6.386;2023-07-31T11:33:42;1.33;;;0.57;;
51578;SDS011;47998;53.242;6.386;2023-07-31T11:36:18;1.92;;;0.70;;
51578;SDS011;47998;53.242;6.386;2023-07-31T11:38:44;1.40;;;0.90;;
51578;SDS011;47998;53.242;6.386;2023-07-31T11:41:13;4.05;;;1.02;;
51578;SDS011;47998;53.242;6.386;2023-07-31T11:43:39;3.83;;;1.38;;
51578;SDS011;47998;53.242;6.386;2023-07-31T11:46:05;2.65;;;1.05;;
51578;SDS011;47998;53.242;6.386;2023-07-31T11:50:59;4.20;;;1.55;;
51578;SDS011;47998;53.242;6.386;2023-07-31T11:53:29;3.75;;;1.70;;
51578;SDS011;47998;53.242;6.386;2023-07-31T11:56:19;4.38;;;2.10;;
51578;SDS011;47998;53.242;6.386;2023-07-31T11:58:46;2.92;;;1.15;;
51578;SDS011;47998;53.242;6.386;2023-07-31T12:01:14;3.78;;;2.10;;
51578;SDS011;47998;53.242;6.386;2023-07-31T12:03:47;5.22;;;1.63;;
51578;SDS011;47998;53.242;6.386;2023-07-31T12:06:13;2.22;;;0.77;;
51578;SDS011;47998;53.242;6.386;2023-07-31T12:08:38;2.17;;;0.90;;
51578;SDS011;47998;53.242;6.386;2023-07-31T12:11:04;2.25;;;1.10;;
51578;SDS011;47998;53.242;6.386;2023-07-31T12:13:32;1.33;;;1.17;;
51578;SDS011;47998;53.242;6.386;2023-07-31T12:15:59;2.83;;;1.60;;
51578;SDS011;47998;53.242;6.386;2023-07-31T12:18:28;1.40;;;1.10;;
51578;SDS011;47998;53.242;6.386;2023-07-31T12:20:59;1.67;;;0.90;;
51578;SDS011;47998;53.242;6.386;2023-07-31T12:23:27;2.10;;;1.25;;
51578;SDS011;47998;53.242;6.386;2023-07-31T12:28:36;4.53;;;1.67;;
51578;SDS011;47998;53.242;6.386;2023-07-31T12:31:08;4.05;;;1.10;;
51578;SDS011;47998;53.242;6.386;2023-07-31T12:33:36;1.90;;;1.40;;
51578;SDS011;47998;53.242;6.386;2023-07-31T12:36:06;3.03;;;0.90;;
51578;SDS011;47998;53.242;6.386;2023-07-31T12:38:35;2.92;;;0.90;;
51578;SDS011;47998;53.242;6.386;2023-07-31T12:41:01;1.83;;;0.77;;
51578;SDS011;47998;53.242;6.386;2023-07-31T12:43:27;1.95;;;0.85;;
51578;SDS011;47998;53.242;6.386;2023-07-31T12:45:53;4.97;;;1.35;;
51578;SDS011;47998;53.242;6.386;2023-07-31T12:48:20;3.40;;;1.25;;
51578;SDS011;47998;53.242;6.386;2023-07-31T12:50:46;1.60;;;0.70;;
51578;SDS011;47998;53.242;6.386;2023-07-31T12:53:11;4.18;;;1.05;;
51578;SDS011;47998;53.242;6.386;2023-07-31T12:55:37;3.75;;;1.30;;
51578;SDS011;47998;53.242;6.386;2023-07-31T12:58:03;3.10;;;1.40;;
51578;SDS011;47998;53.242;6.386;2023-07-31T13:00:29;4.65;;;2.22;;
51578;SDS011;47998;53.242;6.386;2023-07-31T13:02:54;4.20;;;1.88;;
51578;SDS011;47998;53.242;6.386;2023-07-31T13:05:20;5.60;;;1.48;;
51578;SDS011;47998;53.242;6.386;2023-07-31T13:07:46;4.05;;;1.50;;
51578;SDS011;47998;53.242;6.386;2023-07-31T13:10:13;6.03;;;2.42;;
51578;SDS011;47998;53.242;6.386;2023-07-31T13:12:39;9.40;;;3.25;;
51578;SDS011;47998;53.242;6.386;2023-07-31T13:15:05;6.63;;;2.55;;
51578;SDS011;47998;53.242;6.386;2023-07-31T13:17:31;8.00;;;2.90;;
51578;SDS011;47998;53.242;6.386;2023-07-31T13:19:57;6.68;;;1.88;;
51578;SDS011;47998;53.242;6.386;2023-07-31T13:22:23;8.27;;;2.88;;
51578;SDS011;47998;53.242;6.386;2023-07-31T13:24:49;6.85;;;2.22;;
51578;SDS011;47998;53.242;6.386;2023-07-31T13:27:15;4.75;;;1.60;;
51578;SDS011;47998;53.242;6.386;2023-07-31T13:29:45;9.45;;;2.30;;
51578;SDS011;47998;53.242;6.386;2023-07-31T13:32:11;7.10;;;2.03;;
51578;SDS011;47998;53.242;6.386;2023-07-31T13:34:37;6.07;;;2.08;;
51578;SDS011;47998;53.242;6.386;2023-07-31T13:37:03;7.35;;;2.15;;
51578;SDS011;47998;53.242;6.386;2023-07-31T13:39:31;9.88;;;2.20;;
51578;SDS011;47998;53.242;6.386;2023-07-31T13:41:57;7.82;;;2.95;;
51578;SDS011;47998;53.242;6.386;2023-07-31T13:44:23;6.40;;;2.30;;
51578;SDS011;47998;53.242;6.386;2023-07-31T13:46:49;10.10;;;3.05;;
51578;SDS011;47998;53.242;6.386;2023-07-31T13:49:15;9.15;;;2.60;;
51578;SDS011;47998;53.242;6.386;2023-07-31T13:51:40;5.40;;;1.92;;
51578;SDS011;47998;53.242;6.386;2023-07-31T13:54:06;7.53;;;2.17;;
51578;SDS011;47998;53.242;6.386;2023-07-31T13:56:32;8.18;;;2.15;;
51578;SDS011;47998;53.242;6.386;2023-07-31T13:58:58;4.93;;;1.90;;
51578;SDS011;47998;53.242;6.386;2023-07-31T14:01:25;5.38;;;1.80;;
51578;SDS011;47998;53.242;6.386;2023-07-31T14:03:51;7.63;;;1.98;;
51578;SDS011;47998;53.242;6.386;2023-07-31T14:06:17;4.43;;;2.03;;
51578;SDS011;47998;53.242;6.386;2023-07-31T14:08:43;7.50;;;3.08;;
51578;SDS011;47998;53.242;6.386;2023-07-31T14:11:08;4.55;;;2.40;;
51578;SDS011;47998;53.242;6.386;2023-07-31T14:13:34;7.43;;;2.67;;
51578;SDS011;47998;53.242;6.386;2023-07-31T14:16:00;6.90;;;1.85;;
51578;SDS011;47998;53.242;6.386;2023-07-31T14:18:25;6.75;;;2.20;;
51578;SDS011;47998;53.242;6.386;2023-07-31T14:20:51;8.07;;;2.42;;
51578;SDS011;47998;53.242;6.386;2023-07-31T14:23:17;5.55;;;2.22;;
51578;SDS011;47998;53.242;6.386;2023-07-31T14:25:44;5.10;;;1.60;;
51578;SDS011;47998;53.242;6.386;2023-07-31T14:28:11;6.95;;;2.85;;
51578;SDS011;47998;53.242;6.386;2023-07-31T14:30:36;9.38;;;2.65;;
51578;SDS011;47998;53.242;6.386;2023-07-31T14:33:02;8.70;;;2.55;;
51578;SDS011;47998;53.242;6.386;2023-07-31T14:35:28;9.15;;;2.50;;
51578;SDS011;47998;53.242;6.386;2023-07-31T14:37:54;8.88;;;2.72;;
51578;SDS011;47998;53.242;6.386;2023-07-31T14:40:19;9.68;;;2.45;;
51578;SDS011;47998;53.242;6.386;2023-07-31T14:42:45;9.05;;;3.30;;
51578;SDS011;47998;53.242;6.386;2023-07-31T14:45:11;7.57;;;3.13;;
51578;SDS011;47998;53.242;6.386;2023-07-31T14:47:37;8.48;;;2.80;;
51578;SDS011;47998;53.242;6.386;2023-07-31T14:50:03;6.35;;;2.60;;
51578;SDS011;47998;53.242;6.386;2023-07-31T14:52:29;7.85;;;2.85;;
51578;SDS011;47998;53.242;6.386;2023-07-31T14:54:55;11.80;;;3.90;;
51578;SDS011;47998;53.242;6.386;2023-07-31T14:57:20;9.23;;;3.42;;
51578;SDS011;47998;53.242;6.386;2023-07-31T14:59:47;10.57;;;2.95;;
51578;SDS011;47998;53.242;6.386;2023-07-31T15:02:12;8.82;;;3.10;;
51578;SDS011;47998;53.242;6.386;2023-07-31T15:04:40;10.95;;;3.00;;
51578;SDS011;47998;53.242;6.386;2023-07-31T15:07:06;7.63;;;2.85;;
51578;SDS011;47998;53.242;6.386;2023-07-31T15:09:32;7.20;;;3.63;;
51578;SDS011;47998;53.242;6.386;2023-07-31T15:11:58;12.30;;;3.47;;
51578;SDS011;47998;53.242;6.386;2023-07-31T15:14:24;8.30;;;3.17;;